createdAt,value
2022-11-24T00:00:00.577Z,93
2022-11-24T00:01:00.718Z,93
2022-11-24T00:02:00.980Z,93
2022-11-24T00:03:01.087Z,93
2022-11-24T00:04:01.166Z,93
2022-11-24T00:05:00.309Z,93.1
2022-11-24T00:06:00.457Z,93.1
2022-11-24T00:07:00.618Z,93.1
2022-11-24T00:08:00.782Z,93.1
2022-11-24T00:09:00.882Z,93.1
2022-11-24T00:10:01.054Z,93.1
2022-11-24T00:11:01.195Z,93.1
2022-11-24T00:12:00.340Z,93.1
2022-11-24T00:13:00.514Z,93.1
2022-11-24T00:14:00.633Z,93.1
2022-11-24T00:15:00.787Z,93.1
2022-11-24T00:16:00.930Z,93.1
2022-11-24T00:17:01.129Z,93.1
2022-11-24T00:18:01.241Z,93.1
2022-11-24T00:19:00.374Z,93.1
2022-11-24T00:20:00.515Z,93.1
2022-11-24T00:21:00.679Z,93.1
2022-11-24T00:22:00.799Z,93.1
2022-11-24T00:23:00.945Z,93.1
2022-11-24T00:24:01.095Z,93.1
2022-11-24T00:25:01.247Z,93.1
2022-11-24T00:26:00.382Z,93.1
2022-11-24T00:27:00.563Z,93.1
2022-11-24T00:28:00.675Z,93.1
2022-11-24T00:29:00.844Z,93.1
2022-11-24T00:30:01.011Z,93.1
2022-11-24T00:31:01.212Z,93.1
2022-11-24T00:32:00.301Z,93.1
2022-11-24T00:33:00.432Z,93.1
2022-11-24T00:34:00.580Z,93
2022-11-24T00:35:00.726Z,93
2022-11-24T00:36:00.878Z,93
2022-11-24T00:37:01.090Z,93
2022-11-24T00:38:01.190Z,93
2022-11-24T00:39:00.355Z,93
2022-11-24T00:40:00.502Z,93
2022-11-24T00:41:00.647Z,93
2022-11-24T00:42:00.775Z,93.1
2022-11-24T00:43:00.921Z,93.1
2022-11-24T00:44:01.074Z,93.1
2022-11-24T00:45:12.983Z,93.1
2022-11-24T00:46:00.563Z,93.1
2022-11-24T00:47:00.611Z,93.1
2022-11-24T00:48:00.657Z,93
2022-11-24T00:49:00.786Z,93
2022-11-24T00:50:00.940Z,93
2022-11-24T00:51:01.109Z,93
2022-11-24T00:52:01.234Z,93
2022-11-24T00:53:00.373Z,93
2022-11-24T00:54:00.514Z,93
2022-11-24T00:55:00.669Z,93
2022-11-24T00:56:00.827Z,93
2022-11-24T00:57:00.962Z,93
2022-11-24T00:58:01.103Z,93
2022-11-24T00:59:01.258Z,93
2022-11-24T01:00:00.398Z,93
2022-11-24T01:01:00.625Z,93
2022-11-24T01:02:00.778Z,93
2022-11-24T01:03:00.963Z,93
2022-11-24T01:04:00.988Z,93
2022-11-24T01:05:01.128Z,93
2022-11-24T01:06:00.287Z,93
2022-11-24T01:07:00.448Z,93
2022-11-24T01:08:00.576Z,93
2022-11-24T01:09:00.724Z,93
2022-11-24T01:10:00.872Z,93
2022-11-24T01:11:01.038Z,93
2022-11-24T01:12:01.194Z,93
2022-11-24T01:13:00.326Z,93
2022-11-24T01:14:00.472Z,93
2022-11-24T01:15:00.623Z,93.1
2022-11-24T01:16:00.832Z,93.1
2022-11-24T01:17:00.935Z,93.1
2022-11-24T01:18:01.066Z,93.1
2022-11-24T01:19:01.207Z,93.1
2022-11-24T01:20:00.342Z,93.1
2022-11-24T01:21:00.489Z,93.1
2022-11-24T01:22:00.644Z,93.2
2022-11-24T01:23:00.779Z,93.2
2022-11-24T01:24:00.924Z,93.2
2022-11-24T01:25:01.074Z,93.2
2022-11-24T01:26:01.238Z,93.2
2022-11-24T01:27:00.359Z,93.2
2022-11-24T01:28:00.520Z,93.2
2022-11-24T01:29:00.663Z,93.2
2022-11-24T01:30:00.808Z,93.1
2022-11-24T01:31:01.030Z,93.1
2022-11-24T01:32:01.107Z,93.1
2022-11-24T01:33:01.258Z,93.1
2022-11-24T01:34:00.410Z,93.1
2022-11-24T01:35:00.547Z,93.2
2022-11-24T01:36:00.725Z,93.2
2022-11-24T01:37:00.854Z,93.2
2022-11-24T01:38:01.001Z,93.2
2022-11-24T01:39:01.162Z,93.2
2022-11-24T01:40:00.324Z,93.2
2022-11-24T01:41:00.465Z,93.2
2022-11-24T01:42:00.609Z,93.2
2022-11-24T01:43:00.754Z,93.3
2022-11-24T01:44:00.890Z,93.3
2022-11-24T01:45:01.030Z,93.3
2022-11-24T01:46:01.208Z,93.3
2022-11-24T01:47:00.331Z,93.3
2022-11-24T01:48:00.472Z,93.3
2022-11-24T01:49:00.621Z,93.3
2022-11-24T01:50:00.782Z,93.3
2022-11-24T01:51:00.938Z,93.3
2022-11-24T01:52:01.124Z,93.3
2022-11-24T01:53:01.238Z,93.4
2022-11-24T01:54:00.384Z,93.4
2022-11-24T01:55:00.531Z,93.5
2022-11-24T01:56:00.680Z,93.6
2022-11-24T01:57:00.854Z,93.6
2022-11-24T01:58:00.990Z,93.6
2022-11-24T01:59:01.142Z,93.6
2022-11-24T02:00:00.276Z,93.6
2022-11-24T02:01:00.482Z,93.6
2022-11-24T02:02:00.641Z,93.6
2022-11-24T02:03:00.784Z,93.5
2022-11-24T02:04:00.872Z,93.5
2022-11-24T02:05:01.028Z,93.5
2022-11-24T02:06:01.168Z,93.6
2022-11-24T02:07:00.333Z,93.6
2022-11-24T02:08:00.458Z,93.6
2022-11-24T02:09:00.603Z,93.5
2022-11-24T02:10:00.764Z,93.5
2022-11-24T02:11:00.913Z,93.5
2022-11-24T02:12:01.078Z,93.5
2022-11-24T02:13:01.212Z,93.5
2022-11-24T02:14:00.362Z,93.5
2022-11-24T02:15:00.509Z,93.6
2022-11-24T02:16:00.745Z,93.6
2022-11-24T02:17:00.840Z,93.7
2022-11-24T02:18:00.955Z,93.7
2022-11-24T02:19:01.108Z,93.7
2022-11-24T02:20:01.258Z,93.7
2022-11-24T02:21:00.425Z,93.7
2022-11-24T02:22:00.561Z,93.7
2022-11-24T02:23:00.687Z,93.7
2022-11-24T02:24:00.859Z,93.8
2022-11-24T02:25:00.993Z,93.8
2022-11-24T02:26:01.170Z,93.8
2022-11-24T02:27:00.280Z,93.9
2022-11-24T02:28:00.437Z,94
2022-11-24T02:29:00.583Z,94
2022-11-24T02:30:00.732Z,94
2022-11-24T02:31:00.995Z,94.1
2022-11-24T02:32:01.027Z,94.1
2022-11-24T02:33:01.164Z,94.1
2022-11-24T02:34:00.312Z,94.2
2022-11-24T02:35:00.463Z,94.2
2022-11-24T02:36:00.641Z,94.2
2022-11-24T02:37:00.782Z,94.2
2022-11-24T02:38:00.903Z,94.2
2022-11-24T02:39:01.043Z,94.3
2022-11-24T02:40:01.184Z,94.3
2022-11-24T02:41:00.330Z,94.4
2022-11-24T02:42:00.506Z,94.5
2022-11-24T02:43:00.623Z,94.6
2022-11-24T02:44:00.762Z,94.7
2022-11-24T02:45:00.950Z,94.7
2022-11-24T02:46:01.146Z,94.8
2022-11-24T02:47:01.239Z,94.8
2022-11-24T02:48:00.363Z,94.8
2022-11-24T02:49:00.533Z,94.7
2022-11-24T02:50:00.675Z,94.7
2022-11-24T02:51:00.824Z,94.7
2022-11-24T02:52:00.984Z,94.7
2022-11-24T02:53:01.136Z,94.7
2022-11-24T02:54:00.274Z,94.7
2022-11-24T02:55:00.423Z,94.7
2022-11-24T02:56:00.634Z,94.7
2022-11-24T02:57:00.730Z,94.6
2022-11-24T02:58:00.865Z,94.6
2022-11-24T02:59:01.029Z,94.6
2022-11-24T03:00:01.159Z,94.6
2022-11-24T03:01:00.313Z,94.6
2022-11-24T03:02:00.531Z,94.5
2022-11-24T03:03:00.664Z,94.4
2022-11-24T03:04:00.771Z,94.4
2022-11-24T03:05:00.937Z,94.4
2022-11-24T03:06:01.069Z,94.4
2022-11-24T03:07:01.223Z,94.3
2022-11-24T03:08:00.375Z,94.3
2022-11-24T03:09:00.519Z,94.3
2022-11-24T03:10:00.675Z,94.2
2022-11-24T03:11:00.824Z,94.2
2022-11-24T03:12:00.962Z,94.2
2022-11-24T03:13:01.125Z,94.1
2022-11-24T03:14:01.264Z,94.1
2022-11-24T03:15:00.403Z,94
2022-11-24T03:16:00.630Z,93.9
2022-11-24T03:17:00.691Z,93.8
2022-11-24T03:18:00.854Z,93.8
2022-11-24T03:19:01.021Z,93.7
2022-11-24T03:20:04.576Z,93.7
2022-11-24T03:21:00.285Z,93.7
2022-11-24T03:22:00.431Z,93.7
2022-11-24T03:23:00.575Z,93.7
2022-11-24T03:24:00.766Z,93.6
2022-11-24T03:25:00.867Z,93.6
2022-11-24T03:26:01.018Z,93.5
2022-11-24T03:27:01.160Z,93.5
2022-11-24T03:28:00.315Z,93.5
2022-11-24T03:29:00.470Z,93.5
2022-11-24T03:30:00.606Z,93.5
2022-11-24T03:31:00.789Z,93.5
2022-11-24T03:32:00.914Z,93.6
2022-11-24T03:33:01.075Z,93.6
2022-11-24T03:34:01.200Z,93.6
2022-11-24T03:35:00.354Z,93.6
2022-11-24T03:36:00.501Z,93.6
2022-11-24T03:37:00.654Z,93.6
2022-11-24T03:38:00.803Z,93.6
2022-11-24T03:39:00.951Z,93.6
2022-11-24T03:40:01.089Z,93.6
2022-11-24T03:41:01.234Z,93.6
2022-11-24T03:42:00.385Z,93.6
2022-11-24T03:43:00.541Z,93.7
2022-11-24T03:44:00.714Z,93.7
2022-11-24T03:45:16.612Z,93.7
2022-11-24T03:46:01.053Z,93.7
2022-11-24T03:47:01.136Z,93.7
2022-11-24T03:48:00.294Z,93.7
2022-11-24T03:49:00.458Z,93.7
2022-11-24T03:50:00.599Z,93.7
2022-11-24T03:51:00.733Z,93.7
2022-11-24T03:52:05.244Z,93.7
2022-11-24T03:53:01.034Z,93.7
2022-11-24T03:54:01.210Z,93.7
2022-11-24T03:55:00.330Z,93.7
2022-11-24T03:56:00.473Z,93.7
2022-11-24T03:57:00.614Z,93.7
2022-11-24T03:58:00.777Z,93.7
2022-11-24T03:59:00.909Z,93.7
2022-11-24T04:00:01.054Z,93.7
2022-11-24T04:01:01.201Z,93.7
2022-11-24T04:02:00.401Z,93.8
2022-11-24T04:03:00.578Z,93.8
2022-11-24T04:04:00.641Z,93.8
2022-11-24T04:05:00.767Z,93.8
2022-11-24T04:06:00.901Z,93.8
2022-11-24T04:07:01.052Z,93.8
2022-11-24T04:08:01.202Z,93.8
2022-11-24T04:09:00.349Z,93.8
2022-11-24T04:10:00.496Z,93.8
2022-11-24T04:11:00.629Z,93.8
2022-11-24T04:12:00.780Z,93.8
2022-11-24T04:13:00.957Z,93.8
2022-11-24T04:14:01.089Z,93.8
2022-11-24T04:15:01.228Z,93.8
2022-11-24T04:16:00.403Z,93.8
2022-11-24T04:17:00.521Z,93.8
2022-11-24T04:18:00.682Z,93.8
2022-11-24T04:19:00.816Z,93.8
2022-11-24T04:20:00.954Z,93.8
2022-11-24T04:21:01.126Z,93.8
2022-11-24T04:22:01.270Z,93.8
2022-11-24T04:23:00.440Z,93.8
2022-11-24T04:24:00.571Z,93.8
2022-11-24T04:25:00.718Z,93.8
2022-11-24T04:26:00.867Z,93.8
2022-11-24T04:27:01.015Z,93.7
2022-11-24T04:28:01.170Z,93.7
2022-11-24T04:29:00.304Z,93.7
2022-11-24T04:30:00.444Z,93.7
2022-11-24T04:31:00.662Z,93.7
2022-11-24T04:32:00.752Z,93.6
2022-11-24T04:33:00.887Z,93.7
2022-11-24T04:34:01.031Z,93.8
2022-11-24T04:35:01.175Z,93.9
2022-11-24T04:36:00.343Z,93.9
2022-11-24T04:37:00.475Z,93.9
2022-11-24T04:38:00.615Z,94
2022-11-24T04:39:25.523Z,94
2022-11-24T04:40:00.932Z,93.9
2022-11-24T04:41:01.085Z,93.9
2022-11-24T04:42:01.209Z,94
2022-11-24T04:43:00.359Z,94
2022-11-24T04:44:00.498Z,94
2022-11-24T04:45:00.641Z,94
2022-11-24T04:46:00.798Z,93.9
2022-11-24T04:47:01.042Z,93.9
2022-11-24T04:48:01.087Z,93.9
2022-11-24T04:49:01.240Z,93.9
2022-11-24T04:50:00.386Z,93.9
2022-11-24T04:51:00.549Z,93.9
2022-11-24T04:52:00.674Z,93.9
2022-11-24T04:53:00.831Z,93.9
2022-11-24T04:54:01.003Z,93.9
2022-11-24T04:55:01.122Z,93.9
2022-11-24T04:56:01.269Z,93.9
2022-11-24T04:57:00.409Z,93.9
2022-11-24T04:58:00.552Z,93.9
2022-11-24T04:59:05.131Z,93.9
2022-11-24T05:00:00.871Z,93.9
2022-11-24T05:01:01.031Z,94
2022-11-24T05:02:01.283Z,94
2022-11-24T05:03:00.316Z,94
2022-11-24T05:04:00.539Z,94
2022-11-24T05:05:00.607Z,94
2022-11-24T05:06:00.764Z,94
2022-11-24T05:07:00.911Z,94
2022-11-24T05:08:01.171Z,94.1
2022-11-24T05:09:01.212Z,94.1
2022-11-24T05:10:00.342Z,94.1
2022-11-24T05:11:00.498Z,94.1
2022-11-24T05:12:00.634Z,94.1
2022-11-24T05:13:00.800Z,94.1
2022-11-24T05:14:00.935Z,94.2
2022-11-24T05:15:01.089Z,94.2
2022-11-24T05:16:01.299Z,94.2
2022-11-24T05:17:00.377Z,94.3
2022-11-24T05:18:00.536Z,94.3
2022-11-24T05:19:00.662Z,94.3
2022-11-24T05:20:00.806Z,94.3
2022-11-24T05:21:01.575Z,94.3
2022-11-24T05:22:01.102Z,94.2
2022-11-24T05:23:01.271Z,94.3
2022-11-24T05:24:00.408Z,94.3
2022-11-24T05:25:00.557Z,94.3
2022-11-24T05:26:00.726Z,94.3
2022-11-24T05:27:00.853Z,94.3
2022-11-24T05:28:01.017Z,94.3
2022-11-24T05:29:01.228Z,94.3
2022-11-24T05:30:00.305Z,94.3
2022-11-24T05:31:00.575Z,94.3
2022-11-24T05:32:00.597Z,94.3
2022-11-24T05:33:00.747Z,94.3
2022-11-24T05:34:00.897Z,94.3
2022-11-24T05:35:01.031Z,94.3
2022-11-24T05:36:01.191Z,94.3
2022-11-24T05:37:00.329Z,94.3
2022-11-24T05:38:00.475Z,94.3
2022-11-24T05:39:00.655Z,94.3
2022-11-24T05:40:00.789Z,94.3
2022-11-24T05:41:00.928Z,94.3
2022-11-24T05:42:01.086Z,94.4
2022-11-24T05:43:01.219Z,94.4
2022-11-24T05:44:00.382Z,94.4
2022-11-24T05:45:00.498Z,94.4
2022-11-24T05:46:00.661Z,94.4
2022-11-24T05:47:00.874Z,94.4
2022-11-24T05:48:00.946Z,94.4
2022-11-24T05:49:01.122Z,94.4
2022-11-24T05:50:01.251Z,94.4
2022-11-24T05:51:03.118Z,94.4
2022-11-24T05:52:00.525Z,94.5
2022-11-24T05:53:00.681Z,94.5
2022-11-24T05:54:00.847Z,94.5
2022-11-24T05:55:00.979Z,94.5
2022-11-24T05:56:01.130Z,94.5
2022-11-24T05:57:00.277Z,94.5
2022-11-24T05:58:00.411Z,94.5
2022-11-24T05:59:03.131Z,94.5
2022-11-24T06:00:00.703Z,94.5
2022-11-24T06:01:00.862Z,94.5
2022-11-24T06:02:01.192Z,94.5
2022-11-24T06:03:01.388Z,94.5
2022-11-24T06:04:00.325Z,94.5
2022-11-24T06:05:00.447Z,94.5
2022-11-24T06:06:00.622Z,94.5
2022-11-24T06:07:00.750Z,94.5
2022-11-24T06:08:00.914Z,94.5
2022-11-24T06:09:01.046Z,94.5
2022-11-24T06:10:01.189Z,94.5
2022-11-24T06:11:00.343Z,94.5
2022-11-24T06:12:00.478Z,94.5
2022-11-24T06:13:00.633Z,94.5
2022-11-24T06:14:00.780Z,94.5
2022-11-24T06:15:00.945Z,94.5
2022-11-24T06:16:01.218Z,94.5
2022-11-24T06:17:01.237Z,94.5
2022-11-24T06:18:00.383Z,94.5
2022-11-24T06:19:00.524Z,94.5
2022-11-24T06:20:00.663Z,94.5
2022-11-24T06:21:10.741Z,94.5
2022-11-24T06:22:00.969Z,94.6
2022-11-24T06:23:01.168Z,94.6
2022-11-24T06:24:00.265Z,94.5
2022-11-24T06:25:00.406Z,94.5
2022-11-24T06:26:00.556Z,94.6
2022-11-24T06:27:00.703Z,94.6
2022-11-24T06:28:00.852Z,94.6
2022-11-24T06:29:00.988Z,94.5
2022-11-24T06:30:01.140Z,94.5
2022-11-24T06:31:00.283Z,94.5
2022-11-24T06:32:00.505Z,94.5
2022-11-24T06:33:00.594Z,94.5
2022-11-24T06:34:00.764Z,94.5
2022-11-24T06:35:00.872Z,94.5
2022-11-24T06:36:01.018Z,94.5
2022-11-24T06:37:01.167Z,94.5
2022-11-24T06:38:00.326Z,94.5
2022-11-24T06:39:00.460Z,94.5
2022-11-24T06:40:00.609Z,94.5
2022-11-24T06:41:00.785Z,94.5
2022-11-24T06:42:00.901Z,94.5
2022-11-24T06:43:01.059Z,94.5
2022-11-24T06:44:01.196Z,94.5
2022-11-24T06:45:00.471Z,94.5
2022-11-24T06:46:00.523Z,94.5
2022-11-24T06:47:00.627Z,94.5
2022-11-24T06:48:00.769Z,94.6
2022-11-24T06:49:00.920Z,94.6
2022-11-24T06:50:01.106Z,94.6
2022-11-24T06:51:01.212Z,94.6
2022-11-24T06:52:00.350Z,94.6
2022-11-24T06:53:00.509Z,94.6
2022-11-24T06:54:00.661Z,94.6
2022-11-24T06:55:00.820Z,94.6
2022-11-24T06:56:00.966Z,94.6
2022-11-24T06:57:01.116Z,94.6
2022-11-24T06:58:00.285Z,94.7
2022-11-24T06:59:00.406Z,94.7
2022-11-24T07:00:00.554Z,94.7
2022-11-24T07:01:00.729Z,94.7
2022-11-24T07:02:00.852Z,94.7
2022-11-24T07:03:01.108Z,94.7
2022-11-24T07:04:01.144Z,94.7
2022-11-24T07:05:00.308Z,94.7
2022-11-24T07:06:00.447Z,94.7
2022-11-24T07:07:00.585Z,94.7
2022-11-24T07:08:00.752Z,94.7
2022-11-24T07:09:00.890Z,94.7
2022-11-24T07:10:01.038Z,94.7
2022-11-24T07:11:01.182Z,94.7
2022-11-24T07:12:00.315Z,94.7
2022-11-24T07:13:00.485Z,94.7
2022-11-24T07:14:00.631Z,94.7
2022-11-24T07:15:00.753Z,94.7
2022-11-24T07:16:00.959Z,94.7
2022-11-24T07:17:01.063Z,94.7
2022-11-24T07:18:01.221Z,94.7
2022-11-24T07:19:00.356Z,94.7
2022-11-24T07:20:00.497Z,94.7
2022-11-24T07:21:00.680Z,94.8
2022-11-24T07:22:00.821Z,94.8
2022-11-24T07:23:00.973Z,94.8
2022-11-24T07:24:01.116Z,94.8
2022-11-24T07:25:00.266Z,94.8
2022-11-24T07:26:06.400Z,94.8
2022-11-24T07:27:00.599Z,94.8
2022-11-24T07:28:00.721Z,94.8
2022-11-24T07:29:00.882Z,94.8
2022-11-24T07:30:01.019Z,94.8
2022-11-24T07:31:01.167Z,94.8
2022-11-24T07:32:05.266Z,94.8
2022-11-24T07:33:00.469Z,94.8
2022-11-24T07:34:00.604Z,94.8
2022-11-24T07:35:00.751Z,94.8
2022-11-24T07:36:00.908Z,94.8
2022-11-24T07:37:01.070Z,94.8
2022-11-24T07:38:01.198Z,94.8
2022-11-24T07:39:00.359Z,94.8
2022-11-24T07:40:00.523Z,94.8
2022-11-24T07:41:00.635Z,94.8
2022-11-24T07:42:00.793Z,94.8
2022-11-24T07:43:00.925Z,94.8
2022-11-24T07:44:01.084Z,94.8
2022-11-24T07:45:01.243Z,94.7
2022-11-24T07:46:00.466Z,94.7
2022-11-24T07:47:00.514Z,94.7
2022-11-24T07:48:00.679Z,94.7
2022-11-24T07:49:00.814Z,94.7
2022-11-24T07:50:00.953Z,94.7
2022-11-24T07:51:01.120Z,94.7
2022-11-24T07:52:01.247Z,94.7
2022-11-24T07:53:00.395Z,94.7
2022-11-24T07:54:00.546Z,94.7
2022-11-24T07:55:00.696Z,94.7
2022-11-24T07:56:00.879Z,94.7
2022-11-24T07:57:01.001Z,94.7
2022-11-24T07:58:01.155Z,94.7
2022-11-24T07:59:00.292Z,94.7
2022-11-24T08:00:00.451Z,94.7
2022-11-24T08:01:00.614Z,94.7
2022-11-24T08:02:00.799Z,94.7
2022-11-24T08:03:00.891Z,94.7
2022-11-24T08:04:01.134Z,94.7
2022-11-24T08:05:01.179Z,94.7
2022-11-24T08:07:00.493Z,94.6
2022-11-24T08:08:00.640Z,94.6
2022-11-24T08:09:00.809Z,94.6
2022-11-24T08:10:00.938Z,94.6
2022-11-24T08:11:01.094Z,94.5
2022-11-24T08:12:01.225Z,94.5
2022-11-24T08:13:00.365Z,94.5
2022-11-24T08:14:00.539Z,94.4
2022-11-24T08:15:00.671Z,94.5
2022-11-24T08:16:00.815Z,94.4
2022-11-24T08:17:01.088Z,94.4
2022-11-24T08:18:01.121Z,94.4
2022-11-24T08:19:00.282Z,94.3
2022-11-24T08:20:00.423Z,94.3
2022-11-24T08:21:00.566Z,94.3
2022-11-24T08:22:00.719Z,94.3
2022-11-24T08:23:00.860Z,94.2
2022-11-24T08:24:01.018Z,94.2
2022-11-24T08:25:01.190Z,94.1
2022-11-24T08:26:00.299Z,94.1
2022-11-24T08:27:00.454Z,94.1
2022-11-24T08:28:00.611Z,94
2022-11-24T08:29:00.768Z,94
2022-11-24T08:30:00.930Z,94
2022-11-24T08:31:01.082Z,93.9
2022-11-24T08:32:01.241Z,93.9
2022-11-24T08:33:00.357Z,93.9
2022-11-24T08:34:00.507Z,93.8
2022-11-24T08:35:13.454Z,93.8
2022-11-24T08:36:00.820Z,93.7
2022-11-24T08:37:00.943Z,93.7
2022-11-24T08:38:04.699Z,93.6
2022-11-24T08:39:01.242Z,93.6
2022-11-24T08:40:00.383Z,93.5
2022-11-24T08:41:00.565Z,93.5
2022-11-24T08:42:00.684Z,93.4
2022-11-24T08:43:00.834Z,93.4
2022-11-24T08:44:00.972Z,93.3
2022-11-24T08:45:13.033Z,93.3
2022-11-24T08:46:00.325Z,93.2
2022-11-24T08:47:00.449Z,93.2
2022-11-24T08:48:00.568Z,93.1
2022-11-24T08:49:00.720Z,93.1
2022-11-24T08:50:00.875Z,93.1
2022-11-24T08:51:01.016Z,93
2022-11-24T08:52:01.183Z,93
2022-11-24T08:53:00.303Z,92.9
2022-11-24T08:54:00.455Z,92.9
2022-11-24T08:55:00.597Z,92.8
2022-11-24T08:56:00.762Z,92.8
2022-11-24T08:57:00.921Z,92.8
2022-11-24T08:58:01.067Z,92.7
2022-11-24T08:59:01.287Z,92.7
2022-11-24T09:00:00.352Z,92.7
2022-11-24T09:01:00.569Z,92.7
2022-11-24T09:02:00.734Z,92.6
2022-11-24T09:03:00.795Z,92.6
2022-11-24T09:04:01.043Z,92.6
2022-11-24T09:05:01.067Z,92.5
2022-11-24T09:06:01.219Z,92.5
2022-11-24T09:07:00.368Z,92.5
2022-11-24T09:08:00.520Z,92.5
2022-11-24T09:09:00.650Z,92.5
2022-11-24T09:10:00.812Z,92.4
2022-11-24T09:11:00.963Z,92.4
2022-11-24T09:12:01.108Z,92.4
2022-11-24T09:13:01.279Z,92.3
2022-11-24T09:14:00.418Z,92.3
2022-11-24T09:15:00.563Z,92.2
2022-11-24T09:16:00.717Z,92.3
2022-11-24T09:17:00.904Z,92.2
2022-11-24T09:18:01.011Z,92.2
2022-11-24T09:19:01.160Z,92.1
2022-11-24T09:20:00.290Z,92
2022-11-24T09:21:00.444Z,91.9
2022-11-24T09:22:00.588Z,92
2022-11-24T09:23:00.740Z,92
2022-11-24T09:24:00.906Z,91.9
2022-11-24T09:25:01.059Z,91.8
2022-11-24T09:26:01.202Z,91.8
2022-11-24T09:27:00.341Z,91.7
2022-11-24T09:28:00.478Z,91.7
2022-11-24T09:29:00.640Z,91.7
2022-11-24T09:30:00.774Z,91.6
2022-11-24T09:31:01.042Z,91.5
2022-11-24T09:32:06.466Z,91.5
2022-11-24T09:33:01.217Z,91.4
2022-11-24T09:34:00.360Z,91.4
2022-11-24T09:35:00.514Z,91.3
2022-11-24T09:36:00.670Z,91.2
2022-11-24T09:37:00.798Z,91.2
2022-11-24T09:38:00.947Z,91.2
2022-11-24T09:39:01.089Z,91.1
2022-11-24T09:40:01.240Z,91.1
2022-11-24T09:41:00.402Z,91
2022-11-24T09:42:00.539Z,90.9
2022-11-24T09:43:00.692Z,90.9
2022-11-24T09:44:00.843Z,90.9
2022-11-24T09:45:00.986Z,91
2022-11-24T09:46:05.797Z,90.9
2022-11-24T09:47:00.368Z,90.9
2022-11-24T09:48:00.416Z,90.8
2022-11-24T09:49:00.569Z,90.7
2022-11-24T09:50:00.718Z,90.6
2022-11-24T09:51:00.887Z,90.5
2022-11-24T09:52:01.023Z,90.4
2022-11-24T09:53:01.191Z,90.4
2022-11-24T09:54:00.317Z,90.4
2022-11-24T09:55:00.468Z,90.4
2022-11-24T09:56:00.651Z,90.3
2022-11-24T09:57:00.801Z,90.2
2022-11-24T09:58:00.987Z,90.2
2022-11-24T09:59:01.092Z,90.2
2022-11-24T10:00:01.239Z,90.2
2022-11-24T10:01:00.450Z,90.1
2022-11-24T10:02:00.572Z,89.9
2022-11-24T10:03:00.698Z,89.8
2022-11-24T10:04:05.918Z,89.7
2022-11-24T10:05:01.056Z,89.6
2022-11-24T10:06:01.117Z,89.4
2022-11-24T10:08:00.437Z,89.3
2022-11-24T10:09:00.505Z,89.4
2022-11-24T10:10:00.654Z,89.3
2022-11-24T10:11:00.803Z,89.2
2022-11-24T10:12:00.943Z,89.3
2022-11-24T10:13:01.117Z,89.2
2022-11-24T10:14:01.241Z,89
2022-11-24T10:15:00.387Z,89
2022-11-24T10:16:00.614Z,89.1
2022-11-24T10:17:00.688Z,88.8
2022-11-24T10:18:00.846Z,88.7
2022-11-24T10:19:00.996Z,88.7
2022-11-24T10:20:01.111Z,88.7
2022-11-24T10:21:00.264Z,88.5
2022-11-24T10:22:00.411Z,88.5
2022-11-24T10:23:00.559Z,88.6
2022-11-24T10:24:00.727Z,88.6
2022-11-24T10:25:00.881Z,88.6
2022-11-24T10:26:01.000Z,88.4
2022-11-24T10:27:01.142Z,87.9
2022-11-24T10:28:00.294Z,87.9
2022-11-24T10:29:00.434Z,87.8
2022-11-24T10:30:00.601Z,87.9
2022-11-24T10:31:00.813Z,88.3
2022-11-24T10:32:00.887Z,88.3
2022-11-24T10:33:01.022Z,88
2022-11-24T10:34:01.181Z,87.9
2022-11-24T10:35:00.334Z,88.1
2022-11-24T10:36:00.479Z,88
2022-11-24T10:37:00.628Z,87.9
2022-11-24T10:38:00.767Z,87.7
2022-11-24T10:39:00.925Z,87.9
2022-11-24T10:40:01.104Z,87.6
2022-11-24T10:41:01.231Z,87.4
2022-11-24T10:42:00.368Z,87.5
2022-11-24T10:43:00.521Z,87.5
2022-11-24T10:44:00.673Z,87.5
2022-11-24T10:45:00.822Z,87.3
2022-11-24T10:46:01.021Z,87.3
2022-11-24T10:47:01.118Z,87.6
2022-11-24T10:49:00.375Z,87.8
2022-11-24T10:50:00.540Z,87.8
2022-11-24T10:51:00.661Z,87.6
2022-11-24T10:52:00.806Z,87.5
2022-11-24T10:53:00.956Z,87.3
2022-11-24T10:54:01.141Z,87.4
2022-11-24T10:55:01.288Z,87.6
2022-11-24T10:56:00.432Z,87.6
2022-11-24T10:57:00.567Z,87.4
2022-11-24T10:58:00.717Z,86.9
2022-11-24T10:59:00.860Z,87
2022-11-24T11:00:00.995Z,87.1
2022-11-24T11:01:01.209Z,86.9
2022-11-24T11:02:00.316Z,86.3
2022-11-24T11:03:00.605Z,86.2
2022-11-24T11:04:00.585Z,86.5
2022-11-24T11:05:00.738Z,86.8
2022-11-24T11:06:00.884Z,86.9
2022-11-24T11:07:01.026Z,86.9
2022-11-24T11:08:05.513Z,86.7
2022-11-24T11:09:00.332Z,86.8
2022-11-24T11:10:00.474Z,86.6
2022-11-24T11:11:00.619Z,86.4
2022-11-24T11:12:10.042Z,86.4
2022-11-24T11:13:00.912Z,86.2
2022-11-24T11:14:04.191Z,85.9
2022-11-24T11:15:01.211Z,85.8
2022-11-24T11:16:00.454Z,86.3
2022-11-24T11:17:00.520Z,86.5
2022-11-24T11:18:00.667Z,86.7
2022-11-24T11:19:00.805Z,86.6
2022-11-24T11:20:02.594Z,86.2
2022-11-24T11:21:01.126Z,85.9
2022-11-24T11:22:01.258Z,85.7
2022-11-24T11:23:00.395Z,85.7
2022-11-24T11:24:00.550Z,85.8
2022-11-24T11:25:00.690Z,85.8
2022-11-24T11:26:00.868Z,85.8
2022-11-24T11:27:00.984Z,86.1
2022-11-24T11:28:06.964Z,86.3
2022-11-24T11:31:15.589Z,86.5
2022-11-24T11:31:21.451Z,86.5
2022-11-24T11:34:06.306Z,86.2
2022-11-24T11:35:01.145Z,86.3
2022-11-24T11:36:00.308Z,86.2
2022-11-24T11:37:00.461Z,86.1
2022-11-24T11:38:00.587Z,86.2
2022-11-24T11:39:00.746Z,86.2
2022-11-24T11:40:00.889Z,85.9
2022-11-24T11:41:01.063Z,86.1
2022-11-24T11:42:01.221Z,86
2022-11-24T11:43:03.039Z,85.8
2022-11-24T11:44:00.473Z,86.1
2022-11-24T11:45:00.623Z,86.2
2022-11-24T11:46:00.970Z,86.1
2022-11-24T11:47:00.984Z,85.6
2022-11-24T11:48:01.077Z,85.1
2022-11-24T11:49:01.235Z,84.9
2022-11-24T11:50:00.360Z,85.2
2022-11-24T11:51:22.150Z,85.3
2022-11-24T11:52:00.646Z,84.8
2022-11-24T11:53:00.812Z,85.1
2022-11-24T11:54:01.043Z,84.9
2022-11-24T11:55:01.132Z,85.3
2022-11-24T11:56:00.259Z,85.7
2022-11-24T11:57:00.394Z,85.3
2022-11-24T11:58:00.554Z,84.2
2022-11-24T11:59:00.692Z,84.1
2022-11-24T12:00:00.861Z,84.2
2022-11-24T12:01:01.019Z,84.8
2022-11-24T12:02:01.140Z,84.4
2022-11-24T12:03:00.451Z,84.8
2022-11-24T12:04:00.617Z,83.8
2022-11-24T12:05:00.597Z,84.5
2022-11-24T12:06:00.735Z,84.8
2022-11-24T12:07:00.875Z,85
2022-11-24T12:08:06.381Z,83.4
2022-11-24T12:09:19.934Z,82.7
2022-11-24T12:10:00.337Z,82.5
2022-11-24T12:11:00.473Z,82.7
2022-11-24T12:12:00.598Z,82.3
2022-11-24T12:13:00.764Z,82
2022-11-24T12:14:00.894Z,82.1
2022-11-24T12:15:04.575Z,82.2
2022-11-24T12:16:01.222Z,81.6
2022-11-24T12:17:00.357Z,82.2
2022-11-24T12:18:00.521Z,82
2022-11-24T12:19:00.651Z,81.7
2022-11-24T12:20:00.796Z,81.6
2022-11-24T12:21:00.955Z,81.3
2022-11-24T12:22:01.117Z,81.3
2022-11-24T12:23:01.260Z,81.4
2022-11-24T12:24:00.402Z,82.2
2022-11-24T12:25:00.661Z,82.4
2022-11-24T12:26:00.738Z,82.4
2022-11-24T12:27:00.876Z,82.8
2022-11-24T12:28:01.019Z,83
2022-11-24T12:29:01.166Z,82.4
2022-11-24T12:30:00.339Z,82.3
2022-11-24T12:31:00.538Z,82.1
2022-11-24T12:32:00.606Z,81.4
2022-11-24T12:33:00.747Z,81.6
2022-11-24T12:34:01.372Z,81.1
2022-11-24T12:35:01.056Z,81.1
2022-11-24T12:36:01.206Z,81.2
2022-11-24T12:37:00.368Z,81.3
2022-11-24T12:38:00.484Z,81.4
2022-11-24T12:39:00.633Z,81.1
2022-11-24T12:40:00.788Z,82
2022-11-24T12:41:25.375Z,82.1
2022-11-24T12:42:01.092Z,81.5
2022-11-24T12:43:01.230Z,81.6
2022-11-24T12:44:00.368Z,81.6
2022-11-24T12:45:00.518Z,81.4
2022-11-24T12:46:00.667Z,81.5
2022-11-24T12:47:00.929Z,81.3
2022-11-24T12:48:00.975Z,80.7
2022-11-24T12:49:01.115Z,81
2022-11-24T12:50:00.259Z,81
2022-11-24T12:51:00.409Z,81.1
2022-11-24T12:52:00.567Z,81.1
2022-11-24T12:53:00.747Z,81
2022-11-24T12:54:00.857Z,80.9
2022-11-24T12:55:01.009Z,80.8
2022-11-24T12:56:01.143Z,80.9
2022-11-24T12:57:00.292Z,81.1
2022-11-24T12:58:00.445Z,81.2
2022-11-24T12:59:00.586Z,81.5
2022-11-24T13:00:00.721Z,81.3
2022-11-24T13:01:01.044Z,81.4
2022-11-24T13:02:01.193Z,81.6
2022-11-24T13:03:01.414Z,81.7
2022-11-24T13:04:00.309Z,81.9
2022-11-24T13:05:00.458Z,81.9
2022-11-24T13:06:00.619Z,82.2
2022-11-24T13:07:00.768Z,82.5
2022-11-24T13:08:00.933Z,83.1
2022-11-24T13:09:01.068Z,83.5
2022-11-24T13:10:01.219Z,83.1
2022-11-24T13:11:00.401Z,83.4
2022-11-24T13:12:03.544Z,83
2022-11-24T13:13:00.663Z,82.4
2022-11-24T13:14:00.823Z,82.5
2022-11-24T13:15:00.944Z,82.6
2022-11-24T13:16:34.504Z,82.4
2022-11-24T13:17:29.372Z,82.9
2022-11-24T13:18:10.536Z,82.5
2022-11-24T13:19:00.610Z,82.4
2022-11-24T13:20:00.696Z,82.6
2022-11-24T13:21:00.847Z,82.8
2022-11-24T13:22:01.015Z,82.9
2022-11-24T13:23:01.172Z,82.6
2022-11-24T13:24:00.284Z,82.5
2022-11-24T13:25:00.432Z,82.5
2022-11-24T13:26:00.584Z,82.6
2022-11-24T13:27:00.741Z,82.2
2022-11-24T13:28:00.911Z,82.4
2022-11-24T13:29:06.046Z,82.3